Aeroporto :
LOGIN :

Iscrizione | Disclaimer

   EN    FR    IT 

 










Sommario :    VFR   VFR Marginale   IFR   IFR Intensivo   IFR Molto Intensivo
Visibilità : 
Base nubi : 
>= 8 km
>= 3000ft
5 / 8 km
1000 / 3000 ft
1500m / 5 km
500 / 1000 ft
800 / 1500m
200 / 500 ft
< 800m
< 200 ft
Simboli :   Temporali  Nebbia  Neve Forte  Precipitazioni Forti  Vento > 20 kt
SIGMETs :   Varie  Temporali  Ghiacco  Turbolenza  Onda orograficha  Ceneri Vulcaniche







- Altitudine del aeroporto : 6 ft
- Codice IATA : PSA


LIRP - Galileo Galilei Pisa

ULTIMO METAR :
  • 220215Z 08004KT 9999 BKN060 13/07 Q1012 NOSIG

METARs OBSOLETI :
  • 220145Z 08004KT 9999 BKN060 13/07 Q1012 NOSIG
  • 220015Z 10004KT CAVOK 14/08 Q1015 NOSIG
  • 212345Z 04003KT CAVOK 14/08 Q1015 NOSIG

TAF TAF LIRP
Valido dal 22 a 00 ore il 23 a 00 ore UTC


212300Z 2200/2224 09005KT CAVOK
BECMG 2204/2206 07015KT
TEMPO 2209/2221 07018G30KT
BECMG 2214/2216 9999 SCT040 BKN060
TEMPO 2216/2224 5000 RA BR
PROB40
TEMPO 2218/2224 3000 SHRA BR FEW015CB BKN030
Nessun NOTAM noto per questo aeroporto.



MetMap, La meteo Aeronautica in un colpo d'occhio ! - Copyright ORBIFLY Dicembre 2007 - Disclaimer

ORBIFLY MET'MAP TEAM :

Programmazione e sviluppo : Alexandra Zaïnal
Concezione e sviluppo : Baudouin d'Aumeries
Co-Programmazione e sviluppo : Marc-Olivier Méhu
Supporto tecnico e logistico : Manuel Goepfert
Aiuto per la traduzione : Arnaldo La Scala

Contatto : metmap@orbifly.com




FONTI E CREDITI :

   NOAA